Avery, TX

3:27 PM CST on February 06, 2016 (GMT -0600)
De Kalb, Texas | | Change Station
CLOSE
Current Station
Personal Weather Station
Location: De Kalb, TX
Elevation: 411 ft
Nearby Weather Stations

Elev 411 ft 33.51 °N, 94.62 °W | Updated 6 seconds ago

Clear
Clear
58.3 °F
Feels Like 58.3 °F
N
0.0
Wind Variable Wind from West
Gusts 1.0 mph

Today
High -- | Low -- °F
--% Chance of Precip.
Yesterday
High -- | Low -- °F
Precip. -- in
Pressure 30.33 in
Visibility 10.0 miles
Clouds Scattered Clouds 4100 ft
Dew Point 25 °F
Humidity 28%
Rainfall 0.00 in
Snow Depth Not available.
7:11 AM 5:55 PM
Waning Crescent, 4% visible
METAR KOSA 062115Z AUTO 00000KT 10SM SCT041 12/01 A3033 RMK AO1 T01150006
Pressure 30.33 in
Visibility 10.0 miles
Clouds Scattered Clouds 4100 ft
Dew Point 25 °F
Humidity 28%
Rainfall 0.00 in
Snow Depth Not available.
7:11 AM 5:55 PM
Waning Crescent, 4% visible
METAR KOSA 062115Z AUTO 00000KT 10SM SCT041 12/01 A3033 RMK AO1 T01150006

10-Day Weather Forecast

Almanac

Astronomy

Feb. 06, 2016 Rise Set
Actual Time
Civil Twilight
Nautical Twilight
Astronomical Twilight
Moon
Length of Visible Light
Length of Day
Tomorrow will be .
, % of the Moon is Illuminated

Today's Extremes

State Highs State Lows

Community

WunderPhotos

Upload Photos

1,891,050 photos uploaded!

WunderBlog® & News

Nearby

Air Quality

  Air Quality AQ Index Pollutant
Not available.

Snow Depth

Station Depth Elevation

Earthquake Activity

City Distance Mag. Time & Date
Minimum magnitude displayed is 2.5.

Coastal Water Temperatures

Place Temperature

Stations

Nearby Weather Stations

Station Location Temp. Windchill Dew Point Humidity Wind Precip. Elev Updated Type
                   

Watches & Warnings

There are currently no watches in effect.